Time;durP1;ratioP1;P1;durP2;ratioP2;P2;SDS_P1;SDS_P2;PMS_P1;PMS_P2;Temp;Humidity;BMP_temperature;BMP_pressure;BME280_temperature;BME280_humidity;BME280_pressure;Samples;Min_cycle;Max_cycle;Signal;HPM_P1;HPM_P2
2022/03/19 00:00:00;;;;;;;151.90;57.30;;;;;;;;;;5092749;28;20521;-50
2022/03/19 00:02:26;;;;;;;143.55;56.90;;;;;;;;;;5103195;27;20475;-48
2022/03/19 00:04:53;;;;;;;126.20;48.95;;;;;;;;;;5117763;27;20019;-51
2022/03/19 00:07:19;;;;;;;144.60;56.35;;;;;;;;;;5119148;27;20020;-53
2022/03/19 00:09:46;;;;;;;144.13;57.28;;;;;;;;;;5121957;27;20038;-48
2022/03/19 00:12:14;;;;;;;118.53;50.13;;;;;;;;;;5106006;27;20059;-47
2022/03/19 00:14:40;;;;;;;106.55;44.55;;;;;;;;;;5130471;27;20016;-50
2022/03/19 00:17:07;;;;;;;115.07;48.97;;;;;;;;;;5125651;27;20027;-50
2022/03/19 00:19:35;;;;;;;106.95;48.60;;;;;;;;;;5129508;27;20068;-50
2022/03/19 00:22:01;;;;;;;114.40;46.13;;;;;;;;;;5117275;27;20030;-49
2022/03/19 00:24:27;;;;;;;108.07;44.83;;;;;;;;;;5127943;27;20447;-50
2022/03/19 00:26:53;;;;;;;91.05;39.33;;;;;;;;;;5129317;27;20102;-50
2022/03/19 00:29:20;;;;;;;90.38;41.08;;;;;;;;;;5128819;27;20080;-50
2022/03/19 00:31:46;;;;;;;108.80;45.63;;;;;;;;;;5130723;27;20031;-50
2022/03/19 00:34:13;;;;;;;89.35;39.63;;;;;;;;;;5118850;27;20020;-49
2022/03/19 00:36:39;;;;;;;90.47;40.55;;;;;;;;;;5130953;27;20041;-49
2022/03/19 00:39:05;;;;;;;82.75;38.72;;;;;;;;;;5126145;27;20028;-50
2022/03/19 00:41:31;;;;;;;76.22;35.97;;;;;;;;;;5128670;27;20050;-50
2022/03/19 00:43:57;;;;;;;77.70;33.30;;;;;;;;;;5131422;27;20239;-49
2022/03/19 00:46:23;;;;;;;64.70;30.92;;;;;;;;;;5127197;27;20027;-52
2022/03/19 00:48:49;;;;;;;59.10;27.75;;;;;;;;;;5130784;27;20070;-51
2022/03/19 00:51:15;;;;;;;64.43;28.73;;;;;;;;;;5114027;27;20079;-51
2022/03/19 00:53:41;;;;;;;73.35;31.30;;;;;;;;;;5130396;27;20112;-51
2022/03/19 00:56:07;;;;;;;69.07;32.20;;;;;;;;;;5128449;27;20023;-51
2022/03/19 00:58:33;;;;;;;76.97;34.72;;;;;;;;;;5126916;27;20020;-50
2022/03/19 01:00:59;;;;;;;71.40;31.55;;;;;;;;;;5103753;27;20477;-50
2022/03/19 01:03:26;;;;;;;71.93;34.08;;;;;;;;;;5111602;28;20519;-48
2022/03/19 01:05:52;;;;;;;64.47;30.55;;;;;;;;;;5107943;28;20028;-47
2022/03/19 01:08:18;;;;;;;60.63;29.65;;;;;;;;;;5108857;28;20040;-49
2022/03/19 01:10:44;;;;;;;55.42;25.85;;;;;;;;;;5108976;28;20471;-48
2022/03/19 01:13:10;;;;;;;68.82;31.60;;;;;;;;;;5109511;28;20045;-48
2022/03/19 01:15:36;;;;;;;59.10;27.60;;;;;;;;;;5109603;28;20025;-48
2022/03/19 01:18:03;;;;;;;57.05;27.00;;;;;;;;;;5103661;28;20066;-48
2022/03/19 01:20:29;;;;;;;60.58;28.35;;;;;;;;;;5094263;28;20024;-49
2022/03/19 01:22:55;;;;;;;62.88;27.65;;;;;;;;;;5104718;28;20587;-49
2022/03/19 01:25:21;;;;;;;55.55;25.45;;;;;;;;;;5104789;28;20019;-47
2022/03/19 01:27:49;;;;;;;59.10;25.88;;;;;;;;;;5104281;28;20032;-49
2022/03/19 01:30:17;;;;;;;61.03;27.63;;;;;;;;;;5108980;28;20035;-48
2022/03/19 01:32:43;;;;;;;52.85;25.33;;;;;;;;;;5106299;28;20094;-49
2022/03/19 01:35:10;;;;;;;67.32;28.45;;;;;;;;;;5104017;28;20467;-50
2022/03/19 01:37:37;;;;;;;55.75;27.20;;;;;;;;;;5108620;28;20023;-48
2022/03/19 01:40:04;;;;;;;62.17;27.23;;;;;;;;;;5109806;28;20445;-50
2022/03/19 01:42:31;;;;;;;51.83;24.63;;;;;;;;;;5108755;28;20020;-48
2022/03/19 01:44:58;;;;;;;61.13;27.38;;;;;;;;;;5108609;28;20048;-49
2022/03/19 01:47:24;;;;;;;50.00;24.25;;;;;;;;;;5119595;27;20035;-48
2022/03/19 01:49:51;;;;;;;57.60;26.73;;;;;;;;;;5123789;27;20039;-49
2022/03/19 01:52:18;;;;;;;54.00;25.65;;;;;;;;;;5118266;27;20493;-49
2022/03/19 01:54:48;;;;;;;64.72;30.90;;;;;;;;;;5120784;28;20023;-48
2022/03/19 01:57:18;;;;;;;65.00;31.70;;;;;;;;;;5124670;28;20023;-47
2022/03/19 01:59:44;;;;;;;74.07;33.67;;;;;;;;;;5114150;28;20483;-47
2022/03/19 02:02:11;;;;;;;62.28;31.23;;;;;;;;;;5121989;28;20034;-46
2022/03/19 02:04:38;;;;;;;58.78;27.85;;;;;;;;;;5113644;28;20028;-48
2022/03/19 02:07:04;;;;;;;53.80;25.73;;;;;;;;;;5113831;28;20467;-48
2022/03/19 02:09:30;;;;;;;49.03;24.08;;;;;;;;;;5113445;28;20039;-49
2022/03/19 02:11:57;;;;;;;51.00;23.02;;;;;;;;;;5113519;28;20016;-50
2022/03/19 02:14:23;;;;;;;53.38;23.02;;;;;;;;;;5113766;28;20032;-49
2022/03/19 02:16:49;;;;;;;45.15;21.55;;;;;;;;;;5113811;28;20020;-50
2022/03/19 02:19:16;;;;;;;51.75;24.58;;;;;;;;;;5113711;28;20114;-50
2022/03/19 02:21:47;;;;;;;49.28;23.63;;;;;;;;;;5113533;28;20092;-50
2022/03/19 02:26:58;;;;;;;50.22;23.60;;;;;;;;;;5113726;28;20243;-49
2022/03/19 02:29:24;;;;;;;49.10;23.92;;;;;;;;;;5113414;28;20028;-49
2022/03/19 02:31:52;;;;;;;53.13;25.23;;;;;;;;;;5113643;28;20024;-49
2022/03/19 02:34:18;;;;;;;55.35;26.98;;;;;;;;;;5113406;28;20034;-47
2022/03/19 02:36:44;;;;;;;52.67;24.75;;;;;;;;;;5113340;28;20020;-50
2022/03/19 02:39:17;;;;;;;49.20;24.15;;;;;;;;;;5113468;28;20383;-48
2022/03/19 02:41:44;;;;;;;48.00;24.92;;;;;;;;;;5094884;28;20039;-50
2022/03/19 02:44:11;;;;;;;55.63;25.05;;;;;;;;;;5117328;28;20031;-50
2022/03/19 02:46:38;;;;;;;50.88;25.00;;;;;;;;;;5115925;27;20375;-49
2022/03/19 02:49:04;;;;;;;50.10;23.55;;;;;;;;;;5098630;28;20138;-49
2022/03/19 02:51:32;;;;;;;53.13;25.25;;;;;;;;;;5116608;28;20027;-49
2022/03/19 02:53:58;;;;;;;53.80;24.92;;;;;;;;;;5117398;28;20020;-50
2022/03/19 02:56:25;;;;;;;51.72;25.73;;;;;;;;;;5116525;28;20015;-50
2022/03/19 02:58:51;;;;;;;49.67;25.08;;;;;;;;;;5116919;28;20028;-50
2022/03/19 03:01:17;;;;;;;58.53;26.17;;;;;;;;;;5116774;28;20051;-49
2022/03/19 03:03:43;;;;;;;54.20;24.92;;;;;;;;;;5117067;28;20467;-49
2022/03/19 03:06:09;;;;;;;57.50;28.60;;;;;;;;;;5117293;28;20051;-49
2022/03/19 03:08:35;;;;;;;52.05;26.67;;;;;;;;;;5116670;28;20122;-49
2022/03/19 03:11:01;;;;;;;61.90;26.42;;;;;;;;;;5116838;28;20055;-50
2022/03/19 03:13:27;;;;;;;53.38;26.15;;;;;;;;;;5115626;28;20032;-51
2022/03/19 03:15:53;;;;;;;57.13;26.48;;;;;;;;;;5116674;28;20024;-49
2022/03/19 03:18:19;;;;;;;47.55;23.40;;;;;;;;;;5116493;28;20035;-49
2022/03/19 03:20:46;;;;;;;52.15;23.73;;;;;;;;;;5116606;28;20034;-50
2022/03/19 03:23:14;;;;;;;44.55;22.77;;;;;;;;;;5116729;28;20035;-49
2022/03/19 03:25:40;;;;;;;50.40;23.55;;;;;;;;;;5116231;28;20024;-49
2022/03/19 03:28:08;;;;;;;53.95;24.58;;;;;;;;;;5116466;28;20043;-49
2022/03/19 03:30:34;;;;;;;56.58;24.85;;;;;;;;;;5116216;28;20136;-49
2022/03/19 03:33:00;;;;;;;54.38;26.52;;;;;;;;;;5116379;28;20096;-49
2022/03/19 03:35:26;;;;;;;48.55;24.27;;;;;;;;;;5116078;28;20026;-50
2022/03/19 03:37:53;;;;;;;52.42;24.40;;;;;;;;;;5116028;28;20023;-50
2022/03/19 03:40:19;;;;;;;48.78;23.77;;;;;;;;;;5116211;28;20031;-49
2022/03/19 03:42:46;;;;;;;52.50;26.33;;;;;;;;;;5116165;28;20023;-48
2022/03/19 03:45:12;;;;;;;56.58;25.85;;;;;;;;;;5116060;28;20024;-49
2022/03/19 03:47:38;;;;;;;62.70;29.65;;;;;;;;;;5115743;28;20066;-50
2022/03/19 03:50:05;;;;;;;59.33;28.88;;;;;;;;;;5115905;28;20027;-49
2022/03/19 03:52:34;;;;;;;66.78;29.35;;;;;;;;;;5115481;28;20383;-49
2022/03/19 03:55:01;;;;;;;57.10;27.83;;;;;;;;;;5115965;28;20023;-50
2022/03/19 03:57:27;;;;;;;53.50;26.45;;;;;;;;;;5115804;28;20065;-49
2022/03/19 03:59:53;;;;;;;57.50;25.63;;;;;;;;;;5115929;28;20020;-50
2022/03/19 04:02:19;;;;;;;53.90;24.10;;;;;;;;;;5115719;28;20032;-50
2022/03/19 04:04:45;;;;;;;46.03;22.52;;;;;;;;;;5115676;28;20047;-50
2022/03/19 04:07:11;;;;;;;44.50;21.02;;;;;;;;;;5115472;28;20039;-50
2022/03/19 04:09:37;;;;;;;44.90;21.90;;;;;;;;;;5115687;28;20428;-49
2022/03/19 04:12:03;;;;;;;45.45;21.17;;;;;;;;;;5115526;28;20028;-49
2022/03/19 04:14:30;;;;;;;48.63;22.98;;;;;;;;;;5115749;28;20463;-50
2022/03/19 04:16:56;;;;;;;53.50;22.95;;;;;;;;;;5115385;28;20024;-49
2022/03/19 04:19:22;;;;;;;53.97;23.40;;;;;;;;;;5115452;28;20035;-48
2022/03/19 04:21:48;;;;;;;50.60;22.80;;;;;;;;;;5107140;28;20016;-51
2022/03/19 04:24:14;;;;;;;50.15;22.65;;;;;;;;;;5097127;28;20035;-50
2022/03/19 04:26:40;;;;;;;53.00;23.73;;;;;;;;;;5115178;28;20072;-49
2022/03/19 04:29:06;;;;;;;68.25;25.58;;;;;;;;;;5115339;28;20432;-49
2022/03/19 04:31:32;;;;;;;51.65;25.00;;;;;;;;;;5115229;28;20030;-49
2022/03/19 04:33:58;;;;;;;55.85;26.35;;;;;;;;;;5096844;28;20077;-49
2022/03/19 04:36:30;;;;;;;60.70;25.02;;;;;;;;;;5115058;28;20383;-50
2022/03/19 04:38:59;;;;;;;58.95;24.27;;;;;;;;;;5114920;28;20026;-50
2022/03/19 04:41:26;;;;;;;60.20;23.35;;;;;;;;;;5115008;28;20388;-50
2022/03/19 04:43:52;;;;;;;52.42;23.83;;;;;;;;;;5114914;28;20016;-50
2022/03/19 04:46:19;;;;;;;53.70;24.40;;;;;;;;;;5114848;28;20035;-50
2022/03/19 04:48:45;;;;;;;55.65;24.13;;;;;;;;;;5114382;28;20138;-50
2022/03/19 04:51:15;;;;;;;58.55;25.48;;;;;;;;;;5114750;28;20051;-50
2022/03/19 04:53:42;;;;;;;59.88;27.98;;;;;;;;;;5114962;28;20047;-50
2022/03/19 04:56:08;;;;;;;69.03;30.98;;;;;;;;;;5114650;28;20028;-51
2022/03/19 04:58:34;;;;;;;58.20;25.92;;;;;;;;;;5114675;28;20099;-50
2022/03/19 05:01:00;;;;;;;53.00;24.83;;;;;;;;;;5114596;28;20027;-50
2022/03/19 05:03:26;;;;;;;53.35;23.45;;;;;;;;;;5114766;28;20073;-48
2022/03/19 05:05:55;;;;;;;52.60;22.48;;;;;;;;;;5113801;28;20587;-50
2022/03/19 05:08:21;;;;;;;45.33;20.52;;;;;;;;;;5114576;28;20031;-50
2022/03/19 05:13:34;;;;;;;56.58;26.95;;;;;;;;;;5114520;28;20055;-50
2022/03/19 05:16:01;;;;;;;55.55;26.73;;;;;;;;;;5095750;28;20073;-49
2022/03/19 05:18:27;;;;;;;54.13;25.63;;;;;;;;;;5114002;28;20041;-50
2022/03/19 05:20:53;;;;;;;50.17;24.15;;;;;;;;;;5114192;28;20094;-51
2022/03/19 05:23:19;;;;;;;48.42;23.50;;;;;;;;;;5114376;28;20038;-50
2022/03/19 05:25:45;;;;;;;50.35;22.80;;;;;;;;;;5114131;28;20016;-51
2022/03/19 05:28:11;;;;;;;42.83;21.58;;;;;;;;;;5114000;28;20039;-47
2022/03/19 05:30:38;;;;;;;40.53;20.63;;;;;;;;;;5114122;28;20508;-47
2022/03/19 05:33:04;;;;;;;43.50;21.30;;;;;;;;;;5114226;28;20078;-49
2022/03/19 05:35:30;;;;;;;40.22;21.27;;;;;;;;;;5113914;28;20027;-50
2022/03/19 05:38:02;;;;;;;44.13;22.23;;;;;;;;;;5114001;28;20570;-49
2022/03/19 05:40:28;;;;;;;47.10;22.88;;;;;;;;;;5114070;28;20472;-49
2022/03/19 05:42:54;;;;;;;63.70;28.77;;;;;;;;;;5113967;28;20027;-49
2022/03/19 05:45:21;;;;;;;71.88;30.35;;;;;;;;;;5113757;28;20073;-50
2022/03/19 05:47:47;;;;;;;65.57;30.17;;;;;;;;;;5095067;28;20047;-50
2022/03/19 05:50:15;;;;;;;92.28;38.47;;;;;;;;;;5113661;28;20476;-49
2022/03/19 05:52:41;;;;;;;87.45;39.50;;;;;;;;;;5113905;28;20080;-49
2022/03/19 05:55:08;;;;;;;80.38;37.42;;;;;;;;;;5113907;28;20035;-49
2022/03/19 05:57:35;;;;;;;90.00;38.33;;;;;;;;;;5113771;28;20065;-50
2022/03/19 06:00:01;;;;;;;86.22;39.72;;;;;;;;;;5113928;28;20035;-49
2022/03/19 06:02:27;;;;;;;96.03;41.50;;;;;;;;;;5113822;28;20556;-49
2022/03/19 06:04:53;;;;;;;92.47;43.80;;;;;;;;;;5113562;28;20489;-50
2022/03/19 06:07:20;;;;;;;75.13;37.63;;;;;;;;;;5113539;28;20039;-50
2022/03/19 06:09:46;;;;;;;62.75;31.33;;;;;;;;;;5113644;28;20024;-49
2022/03/19 06:12:12;;;;;;;57.80;29.35;;;;;;;;;;5113697;28;20552;-49
2022/03/19 06:14:38;;;;;;;66.75;32.88;;;;;;;;;;5113625;28;20104;-51
2022/03/19 06:17:05;;;;;;;64.32;32.95;;;;;;;;;;5116672;28;20035;-50
2022/03/19 06:19:31;;;;;;;66.28;34.08;;;;;;;;;;5117786;28;20487;-50
2022/03/19 06:21:57;;;;;;;61.80;34.45;;;;;;;;;;5117919;28;20038;-49
2022/03/19 06:24:23;;;;;;;68.72;37.03;;;;;;;;;;5117883;28;20076;-49
2022/03/19 06:26:50;;;;;;;59.33;32.30;;;;;;;;;;5117396;28;20034;-49
2022/03/19 06:29:17;;;;;;;63.55;31.38;;;;;;;;;;5117884;28;20030;-49
2022/03/19 06:31:45;;;;;;;50.85;27.55;;;;;;;;;;5117454;28;20098;-48
2022/03/19 06:34:12;;;;;;;50.88;27.98;;;;;;;;;;5117436;28;20027;-48
2022/03/19 06:39:22;;;;;;;43.60;24.13;;;;;;;;;;5117575;28;20085;-47
2022/03/19 06:41:48;;;;;;;45.00;25.23;;;;;;;;;;5117305;28;20028;-51
2022/03/19 06:44:14;;;;;;;46.85;26.35;;;;;;;;;;5117246;28;20028;-50
2022/03/19 06:46:40;;;;;;;49.40;26.88;;;;;;;;;;5117014;28;20027;-50
2022/03/19 06:49:07;;;;;;;43.72;25.33;;;;;;;;;;5116874;28;20058;-50
2022/03/19 06:51:33;;;;;;;45.08;24.17;;;;;;;;;;5117305;28;20016;-50
2022/03/19 06:54:01;;;;;;;42.88;24.33;;;;;;;;;;5117032;28;20023;-50
2022/03/19 06:56:27;;;;;;;43.47;25.20;;;;;;;;;;5116955;28;20020;-50
2022/03/19 06:58:53;;;;;;;41.38;24.85;;;;;;;;;;5116941;28;20015;-50
2022/03/19 07:01:19;;;;;;;46.17;25.98;;;;;;;;;;5116873;28;20451;-50
2022/03/19 07:03:46;;;;;;;45.08;25.55;;;;;;;;;;5116658;28;20197;-50
2022/03/19 07:06:18;;;;;;;46.35;25.23;;;;;;;;;;5116665;28;20024;-50
2022/03/19 07:08:44;;;;;;;45.10;26.10;;;;;;;;;;5116850;28;20035;-49
2022/03/19 07:11:11;;;;;;;44.90;25.10;;;;;;;;;;5116702;28;20030;-49
2022/03/19 07:13:37;;;;;;;49.10;25.88;;;;;;;;;;5116537;28;20020;-50
2022/03/19 07:16:09;;;;;;;51.00;26.52;;;;;;;;;;5116647;28;20087;-50
2022/03/19 07:18:34;;;;;;;;;;;;;;;;;;5116865;28;20031;-48
2022/03/19 07:21:01;;;;;;;34.00;22.05;;;;;;;;;;5116590;28;20278;-50
2022/03/19 07:23:27;;;;;;;41.08;24.65;;;;;;;;;;5116440;28;20034;-50
2022/03/19 07:25:59;;;;;;;38.90;23.33;;;;;;;;;;5116256;28;20448;-50
2022/03/19 07:28:25;;;;;;;38.90;21.55;;;;;;;;;;5115769;28;20047;-50
2022/03/19 07:30:54;;;;;;;44.78;27.90;;;;;;;;;;5107642;28;20038;-49
2022/03/19 07:33:20;;;;;;;36.42;23.05;;;;;;;;;;5104371;28;20037;-49
2022/03/19 07:35:46;;;;;;;37.13;22.95;;;;;;;;;;5104601;28;20020;-50
2022/03/19 07:38:14;;;;;;;37.03;22.98;;;;;;;;;;5109970;28;20019;-51
2022/03/19 07:43:28;;;;;;;40.97;24.83;;;;;;;;;;5108984;28;20030;-50
2022/03/19 07:45:54;;;;;;;35.15;21.58;;;;;;;;;;5107801;28;20095;-51
2022/03/19 07:48:20;;;;;;;31.38;21.50;;;;;;;;;;5106994;28;20031;-51
2022/03/19 07:50:46;;;;;;;36.30;21.95;;;;;;;;;;5108659;28;20087;-51
2022/03/19 07:53:12;;;;;;;43.45;24.15;;;;;;;;;;5109213;28;20069;-50
2022/03/19 07:55:39;;;;;;;34.95;21.17;;;;;;;;;;5106912;28;20011;-52
2022/03/19 07:58:05;;;;;;;35.53;22.15;;;;;;;;;;5107982;28;20036;-51
2022/03/19 08:00:32;;;;;;;38.10;22.30;;;;;;;;;;5107200;28;20095;-51
2022/03/19 08:02:58;;;;;;;38.95;21.75;;;;;;;;;;5110746;28;20020;-51
2022/03/19 08:05:24;;;;;;;39.13;22.23;;;;;;;;;;5110742;28;20089;-51
2022/03/19 08:07:51;;;;;;;35.65;21.90;;;;;;;;;;5109388;28;20056;-52
2022/03/19 08:10:18;;;;;;;34.53;21.77;;;;;;;;;;5109511;28;20059;-50
2022/03/19 08:12:45;;;;;;;37.15;21.60;;;;;;;;;;5107079;28;20024;-51
2022/03/19 08:15:11;;;;;;;36.55;20.85;;;;;;;;;;5108572;28;20042;-51
2022/03/19 08:17:42;;;;;;;36.38;20.60;;;;;;;;;;5110417;28;20024;-50
2022/03/19 08:20:08;;;;;;;34.20;20.20;;;;;;;;;;5111098;28;20020;-50
2022/03/19 08:22:35;;;;;;;35.25;20.67;;;;;;;;;;5110256;28;20020;-51
2022/03/19 08:25:01;;;;;;;34.70;21.05;;;;;;;;;;5110266;28;20524;-50
2022/03/19 08:27:27;;;;;;;34.47;19.73;;;;;;;;;;5110588;28;20019;-50
2022/03/19 08:29:54;;;;;;;31.77;19.40;;;;;;;;;;5108794;28;20027;-50
2022/03/19 08:32:22;;;;;;;32.67;19.60;;;;;;;;;;5109782;28;20463;-50
2022/03/19 08:34:51;;;;;;;38.85;19.75;;;;;;;;;;5102372;28;20041;-51
2022/03/19 08:37:17;;;;;;;35.83;20.17;;;;;;;;;;5107826;28;20378;-50
2022/03/19 08:42:33;;;;;;;33.58;18.98;;;;;;;;;;5104598;28;20039;-50
2022/03/19 08:44:59;;;;;;;30.42;19.27;;;;;;;;;;5110927;28;20360;-51
2022/03/19 08:47:29;;;;;;;36.08;19.60;;;;;;;;;;5108552;28;20026;-51
2022/03/19 08:49:55;;;;;;;29.30;18.15;;;;;;;;;;5110121;28;20048;-49
2022/03/19 08:52:21;;;;;;;32.97;18.50;;;;;;;;;;5109922;28;20016;-47
2022/03/19 08:54:52;;;;;;;28.92;17.20;;;;;;;;;;5112259;28;20047;-50
2022/03/19 08:57:20;;;;;;;41.38;22.38;;;;;;;;;;5108896;28;20042;-51
2022/03/19 08:59:46;;;;;;;41.72;23.55;;;;;;;;;;5109386;28;20035;-55
2022/03/19 09:02:12;;;;;;;34.83;19.10;;;;;;;;;;5109464;28;20058;-54
2022/03/19 09:04:38;;;;;;;53.67;27.25;;;;;;;;;;5108652;28;20029;-53
2022/03/19 09:07:04;;;;;;;39.25;22.70;;;;;;;;;;5107192;28;20383;-51
2022/03/19 09:09:30;;;;;;;40.38;21.60;;;;;;;;;;5108448;28;20433;-52
2022/03/19 09:11:56;;;;;;;35.95;19.70;;;;;;;;;;5109298;28;20024;-51
2022/03/19 09:14:24;;;;;;;37.63;21.55;;;;;;;;;;5109195;28;20130;-53
2022/03/19 09:16:50;;;;;;;29.75;18.08;;;;;;;;;;5110680;28;20031;-51
2022/03/19 09:19:19;;;;;;;24.50;16.08;;;;;;;;;;5107921;28;20130;-53
2022/03/19 09:21:45;;;;;;;36.22;19.30;;;;;;;;;;5107915;28;20016;-50
2022/03/19 09:24:15;;;;;;;38.00;20.42;;;;;;;;;;5107511;28;20068;-50
2022/03/19 09:26:41;;;;;;;29.17;16.42;;;;;;;;;;5107793;28;20555;-45
2022/03/19 09:29:14;;;;;;;31.85;16.13;;;;;;;;;;5110049;28;20032;-49
2022/03/19 09:31:41;;;;;;;25.23;15.48;;;;;;;;;;5109892;28;20016;-46
2022/03/19 09:34:07;;;;;;;28.15;15.50;;;;;;;;;;5110148;28;20028;-44
2022/03/19 09:36:33;;;;;;;42.72;25.13;;;;;;;;;;5109854;28;20102;-55
2022/03/19 09:38:59;;;;;;;25.00;15.10;;;;;;;;;;5109826;28;20032;-54
2022/03/19 09:41:25;;;;;;;27.48;13.52;;;;;;;;;;5109660;28;20371;-51
2022/03/19 09:43:53;;;;;;;21.25;11.80;;;;;;;;;;5108851;28;20076;-54
2022/03/19 09:46:19;;;;;;;20.27;12.60;;;;;;;;;;5109173;28;20021;-53
2022/03/19 09:48:45;;;;;;;19.10;11.80;;;;;;;;;;5113026;28;20044;-50
2022/03/19 09:51:11;;;;;;;19.77;12.10;;;;;;;;;;5113351;28;20027;-48
2022/03/19 09:53:37;;;;;;;25.08;14.43;;;;;;;;;;5113179;28;20038;-52
2022/03/19 09:56:06;;;;;;;24.23;13.73;;;;;;;;;;5113718;28;20086;-52
2022/03/19 09:58:33;;;;;;;25.85;14.20;;;;;;;;;;5113737;28;20027;-52
2022/03/19 10:01:05;;;;;;;36.28;19.77;;;;;;;;;;5113663;28;20065;-52
2022/03/19 10:03:33;;;;;;;35.97;19.52;;;;;;;;;;5113313;28;20027;-52
2022/03/19 10:08:58;;;;;;;27.45;15.27;;;;;;;;;;5113576;28;20046;-53
2022/03/19 10:11:28;;;;;;;28.02;15.27;;;;;;;;;;5107574;28;20024;-47
2022/03/19 10:13:54;;;;;;;24.38;14.60;;;;;;;;;;5102072;28;20459;-51
2022/03/19 10:16:25;;;;;;;30.75;17.15;;;;;;;;;;5107800;28;20020;-49
2022/03/19 10:19:02;;;;;;;26.83;15.18;;;;;;;;;;5109302;28;20028;-48
2022/03/19 10:21:29;;;;;;;25.25;14.70;;;;;;;;;;5106202;28;20081;-52
2022/03/19 10:23:59;;;;;;;27.35;15.70;;;;;;;;;;5109488;28;20020;-51
2022/03/19 10:26:29;;;;;;;29.45;16.52;;;;;;;;;;5105931;28;20020;-52
2022/03/19 10:29:03;;;;;;;29.92;16.42;;;;;;;;;;5128005;28;20080;-52
2022/03/19 10:31:35;;;;;;;27.60;14.93;;;;;;;;;;5133613;28;20157;-52
2022/03/19 10:34:02;;;;;;;52.20;24.48;;;;;;;;;;5133842;28;20483;-51
2022/03/19 10:36:30;;;;;;;26.42;15.80;;;;;;;;;;5133936;28;20390;-52
2022/03/19 10:38:56;;;;;;;37.45;19.88;;;;;;;;;;5133679;28;20547;-51
2022/03/19 10:41:22;;;;;;;30.10;16.20;;;;;;;;;;5133967;28;20023;-52
2022/03/19 10:43:49;;;;;;;37.95;20.45;;;;;;;;;;5133606;28;20050;-51
2022/03/19 10:46:20;;;;;;;41.50;21.98;;;;;;;;;;5133639;28;20019;-49
2022/03/19 10:48:52;;;;;;;33.95;18.33;;;;;;;;;;5133301;28;20043;-51
2022/03/19 10:51:20;;;;;;;27.42;14.70;;;;;;;;;;5133565;28;20027;-51
2022/03/19 10:53:47;;;;;;;26.40;14.90;;;;;;;;;;5108183;28;20334;-53
2022/03/19 10:56:13;;;;;;;23.85;13.52;;;;;;;;;;5085067;28;20103;-53
2022/03/19 10:58:39;;;;;;;24.67;12.85;;;;;;;;;;5059760;28;20076;-55
2022/03/19 11:01:07;;;;;;;28.50;16.40;;;;;;;;;;5079168;28;20035;-51
2022/03/19 11:03:35;;;;;;;22.92;12.75;;;;;;;;;;5090582;27;20129;-53
2022/03/19 11:06:06;;;;;;;23.08;13.35;;;;;;;;;;5087190;27;20035;-52
2022/03/19 11:08:39;;;;;;;18.95;11.68;;;;;;;;;;5087466;27;20024;-54
2022/03/19 11:11:11;;;;;;;20.63;12.45;;;;;;;;;;5087419;27;20605;-54
2022/03/19 11:13:42;;;;;;;29.58;15.35;;;;;;;;;;5088676;27;20461;-54
2022/03/19 11:16:09;;;;;;;23.58;13.45;;;;;;;;;;5086091;27;20396;-50
2022/03/19 11:18:35;;;;;;;21.88;12.30;;;;;;;;;;5087005;27;20773;-51
2022/03/19 11:21:02;;;;;;;23.48;12.82;;;;;;;;;;5087402;27;20044;-54
2022/03/19 11:23:34;;;;;;;21.15;12.23;;;;;;;;;;5069897;27;20027;-54
2022/03/19 11:26:02;;;;;;;25.33;13.82;;;;;;;;;;5089549;27;20032;-50
2022/03/19 11:28:29;;;;;;;35.85;18.48;;;;;;;;;;5089097;27;20139;-51
2022/03/19 11:30:59;;;;;;;22.30;11.32;;;;;;;;;;5069757;27;20051;-54
2022/03/19 11:33:27;;;;;;;18.75;11.38;;;;;;;;;;5085706;27;20607;-54
2022/03/19 11:35:53;;;;;;;21.35;12.13;;;;;;;;;;5088319;27;20392;-52
2022/03/19 11:38:24;;;;;;;19.27;10.95;;;;;;;;;;5082161;27;21152;-51
2022/03/19 11:40:58;;;;;;;27.83;15.50;;;;;;;;;;5081611;27;20025;-59
2022/03/19 11:43:27;;;;;;;40.20;20.38;;;;;;;;;;5086894;27;20055;-55
2022/03/19 11:45:59;;;;;;;29.42;16.60;;;;;;;;;;5088017;27;20022;-60
2022/03/19 11:48:44;;;;;;;26.60;13.88;;;;;;;;;;5087725;27;20087;-61
2022/03/19 11:51:25;;;;;;;18.52;10.35;;;;;;;;;;5083024;27;20040;-52
2022/03/19 11:53:59;;;;;;;21.02;11.63;;;;;;;;;;5086805;27;20026;-60
2022/03/19 11:56:27;;;;;;;20.17;11.48;;;;;;;;;;5086970;27;20055;-55
2022/03/19 11:58:53;;;;;;;23.08;11.43;;;;;;;;;;5088975;27;20030;-59
2022/03/19 12:01:39;;;;;;;35.60;20.20;;;;;;;;;;5090818;27;20020;-57
2022/03/19 12:04:05;;;;;;;39.63;20.73;;;;;;;;;;5085186;27;20068;-51
2022/03/19 12:06:36;;;;;;;27.30;13.80;;;;;;;;;;5071097;28;20142;-52
2022/03/19 12:09:03;;;;;;;21.63;11.85;;;;;;;;;;5080814;27;20040;-56
2022/03/19 12:11:29;;;;;;;21.67;10.68;;;;;;;;;;5073234;28;20020;-59
2022/03/19 12:13:59;;;;;;;22.25;13.07;;;;;;;;;;5088206;27;20028;-62
2022/03/19 12:16:44;;;;;;;29.17;15.65;;;;;;;;;;5088117;27;20028;-51
2022/03/19 12:19:10;;;;;;;82.13;37.72;;;;;;;;;;5089096;27;21463;-60
2022/03/19 12:21:38;;;;;;;74.57;36.10;;;;;;;;;;5088698;27;20016;-48
2022/03/19 12:24:11;;;;;;;73.45;35.83;;;;;;;;;;5088686;27;20028;-50
2022/03/19 12:26:37;;;;;;;23.17;13.20;;;;;;;;;;5089089;27;20472;-62
2022/03/19 12:29:05;;;;;;;19.20;10.32;;;;;;;;;;5088118;27;20357;-50
2022/03/19 12:31:36;;;;;;;17.55;9.10;;;;;;;;;;5107887;27;20022;-56
2022/03/19 12:34:03;;;;;;;24.55;12.57;;;;;;;;;;5135488;27;20106;-50
2022/03/19 12:36:29;;;;;;;21.73;11.80;;;;;;;;;;5135091;27;20015;-53
2022/03/19 12:39:00;;;;;;;17.77;10.15;;;;;;;;;;5134404;27;20024;-57
2022/03/19 12:41:27;;;;;;;21.38;10.63;;;;;;;;;;5134348;27;20158;-51
2022/03/19 12:43:56;;;;;;;17.60;9.63;;;;;;;;;;5134288;27;20060;-57
2022/03/19 12:46:23;;;;;;;19.70;10.38;;;;;;;;;;5135198;27;20600;-58
2022/03/19 12:48:51;;;;;;;22.85;12.00;;;;;;;;;;5135273;27;20051;-53
2022/03/19 12:51:24;;;;;;;19.80;10.95;;;;;;;;;;5135384;27;20110;-59
2022/03/19 12:53:50;;;;;;;15.23;9.68;;;;;;;;;;5097492;27;20415;-59
2022/03/19 12:56:24;;;;;;;21.50;11.07;;;;;;;;;;5094211;28;20036;-48
2022/03/19 12:58:53;;;;;;;17.75;9.23;;;;;;;;;;5094095;28;20145;-53
2022/03/19 13:01:29;;;;;;;16.33;9.70;;;;;;;;;;5096839;28;20122;-50
2022/03/19 13:03:57;;;;;;;13.63;8.57;;;;;;;;;;5114354;28;20020;-59
2022/03/19 13:06:27;;;;;;;20.73;10.88;;;;;;;;;;5113285;28;20024;-63
2022/03/19 13:08:56;;;;;;;20.77;10.57;;;;;;;;;;5114115;28;20483;-64
2022/03/19 13:11:22;;;;;;;20.02;10.75;;;;;;;;;;5114213;28;20449;-58
2022/03/19 13:13:48;;;;;;;16.58;10.35;;;;;;;;;;5105889;28;20023;-61
2022/03/19 13:16:30;;;;;;;21.67;11.60;;;;;;;;;;5114347;28;20024;-50
2022/03/19 13:18:57;;;;;;;17.05;9.57;;;;;;;;;;5114416;28;20483;-52
2022/03/19 13:21:23;;;;;;;16.73;8.77;;;;;;;;;;5114006;28;20028;-49
2022/03/19 13:23:49;;;;;;;15.40;8.82;;;;;;;;;;5114472;28;20027;-50
2022/03/19 13:26:18;;;;;;;18.67;9.55;;;;;;;;;;5112093;28;20020;-50
2022/03/19 13:29:02;;;;;;;21.42;11.02;;;;;;;;;;5113722;28;20031;-55
2022/03/19 13:31:28;;;;;;;17.67;9.02;;;;;;;;;;5114213;28;20033;-57
2022/03/19 13:34:01;;;;;;;23.85;11.95;;;;;;;;;;5113982;28;20018;-52
2022/03/19 13:36:30;;;;;;;15.30;8.80;;;;;;;;;;5112438;28;20471;-58
2022/03/19 13:38:58;;;;;;;17.65;8.63;;;;;;;;;;5090747;27;20068;-49
2022/03/19 13:41:25;;;;;;;15.60;8.63;;;;;;;;;;5083562;27;20518;-48
2022/03/19 13:43:51;;;;;;;22.45;11.23;;;;;;;;;;5084933;27;20088;-51
2022/03/19 13:46:18;;;;;;;17.10;8.65;;;;;;;;;;5084247;27;20066;-56
2022/03/19 13:48:45;;;;;;;16.38;8.80;;;;;;;;;;5084963;28;20055;-50
2022/03/19 13:51:11;;;;;;;14.80;8.63;;;;;;;;;;5082925;28;20027;-51
2022/03/19 13:53:55;;;;;;;16.92;9.15;;;;;;;;;;5084018;27;20698;-55
2022/03/19 13:56:21;;;;;;;17.23;9.30;;;;;;;;;;5084319;28;20514;-55
2022/03/19 13:59:02;;;;;;;18.13;9.45;;;;;;;;;;5085804;28;20024;-52
2022/03/19 14:01:33;;;;;;;23.23;11.82;;;;;;;;;;5084421;28;20120;-52
2022/03/19 14:03:59;;;;;;;19.67;11.33;;;;;;;;;;5083252;28;20035;-50
2022/03/19 14:06:33;;;;;;;18.33;9.88;;;;;;;;;;5083673;28;20272;-54
2022/03/19 14:08:59;;;;;;;17.88;9.55;;;;;;;;;;5085975;28;20085;-49
2022/03/19 14:11:36;;;;;;;16.70;9.88;;;;;;;;;;5084641;28;20349;-54
2022/03/19 14:14:02;;;;;;;16.27;9.38;;;;;;;;;;5081751;28;20153;-55
2022/03/19 14:16:28;;;;;;;15.95;8.90;;;;;;;;;;5086334;28;20069;-56
2022/03/19 14:18:58;;;;;;;17.52;9.63;;;;;;;;;;5083049;28;20028;-53
2022/03/19 14:21:24;;;;;;;18.67;9.50;;;;;;;;;;5084542;28;20027;-52
2022/03/19 14:23:50;;;;;;;16.98;9.48;;;;;;;;;;5078166;28;20035;-51
2022/03/19 14:26:16;;;;;;;20.25;11.30;;;;;;;;;;5082689;28;20070;-52
2022/03/19 14:28:42;;;;;;;15.48;8.25;;;;;;;;;;5083677;28;20029;-49
2022/03/19 14:31:08;;;;;;;19.67;9.10;;;;;;;;;;5087183;28;20030;-52
2022/03/19 14:33:34;;;;;;;15.88;8.18;;;;;;;;;;5086493;28;20024;-53
2022/03/19 14:36:02;;;;;;;15.88;8.45;;;;;;;;;;5085240;28;20038;-51